Time;durP1;ratioP1;P1;durP2;ratioP2;P2;SDS_P1;SDS_P2;PMS_P1;PMS_P2;Temp;Humidity;BMP_temperature;BMP_pressure;BME280_temperature;BME280_humidity;BME280_pressure;Samples;Min_cycle;Max_cycle;Signal;HPM_P1;HPM_P2
2021/05/27 00:00:03;;;;;;;3.10;2.90;;;11.60;99.90;;;;;;5014734;28;20440;-82
2021/05/27 00:02:30;;;;;;;3.30;3.00;;;11.60;99.90;;;;;;5015237;28;20448;-82
2021/05/27 00:04:56;;;;;;;2.83;2.63;;;11.60;99.90;;;;;;5015175;28;20515;-82
2021/05/27 00:07:23;;;;;;;2.67;2.50;;;;;;;;;;5013338;28;20452;-81
2021/05/27 00:09:49;;;;;;;3.40;3.10;;;11.70;99.90;;;;;;5005868;28;20444;-83
2021/05/27 00:12:15;;;;;;;3.00;2.80;;;11.70;99.90;;;;;;4999453;28;20470;-83
2021/05/27 00:14:41;;;;;;;4.77;2.70;;;11.70;99.90;;;;;;4998708;28;20475;-84
2021/05/27 00:17:07;;;;;;;3.17;2.93;;;11.70;99.90;;;;;;4999099;28;20452;-84
2021/05/27 00:19:34;;;;;;;4.10;3.70;;;11.70;99.90;;;;;;4998581;28;20542;-83
2021/05/27 00:22:01;;;;;;;4.10;3.53;;;11.70;99.90;;;;;;4998456;28;20819;-84
2021/05/27 00:24:27;;;;;;;4.70;3.57;;;11.60;99.90;;;;;;4998419;28;20510;-84
2021/05/27 00:26:53;;;;;;;3.47;3.13;;;11.20;99.90;;;;;;4999202;28;20444;-84
2021/05/27 00:29:19;;;;;;;3.30;3.00;;;11.60;99.90;;;;;;4998423;28;20445;-84
2021/05/27 00:31:45;;;;;;;4.50;3.27;;;11.50;99.90;;;;;;4998669;28;20874;-84
2021/05/27 00:34:11;;;;;;;3.50;3.20;;;11.70;99.90;;;;;;4998843;28;21002;-84
2021/05/27 00:36:38;;;;;;;3.77;3.50;;;11.40;99.90;;;;;;4998635;28;20450;-84
2021/05/27 00:39:05;;;;;;;3.47;3.17;;;11.50;99.90;;;;;;4999426;28;20868;-84
2021/05/27 00:41:31;;;;;;;3.70;3.50;;;;;;;;;;4998930;28;20459;-84
2021/05/27 00:43:58;;;;;;;3.20;3.00;;;11.20;99.90;;;;;;5001502;28;20495;-84
2021/05/27 00:46:24;;;;;;;3.80;3.50;;;11.30;99.90;;;;;;4998289;28;20471;-84
2021/05/27 00:48:59;;;;;;;3.30;3.10;;;11.30;99.90;;;;;;5001267;28;20502;-83
2021/05/27 00:51:27;;;;;;;2.83;2.63;;;11.20;99.90;;;;;;5002060;28;20922;-83
2021/05/27 00:53:55;;;;;;;3.23;3.03;;;11.20;99.90;;;;;;5001738;28;20479;-84
2021/05/27 00:56:22;;;;;;;3.47;3.27;;;11.10;99.90;;;;;;5001636;28;20452;-83
2021/05/27 00:58:48;;;;;;;3.20;2.90;;;11.10;99.90;;;;;;5002226;28;20511;-83
2021/05/27 01:01:15;;;;;;;4.10;3.40;;;11.10;99.90;;;;;;5005422;28;20459;-81
2021/05/27 01:03:42;;;;;;;3.23;2.93;;;11.00;99.90;;;;;;5017427;28;20479;-82
2021/05/27 01:06:08;;;;;;;3.47;3.13;;;11.00;99.90;;;;;;5005205;28;20448;-83
2021/05/27 01:08:34;;;;;;;4.00;3.70;;;10.90;99.90;;;;;;5006136;28;20433;-83
2021/05/27 01:11:01;;;;;;;3.77;3.47;;;10.90;99.90;;;;;;5003754;28;20498;-82
2021/05/27 01:13:28;;;;;;;4.07;3.67;;;10.80;99.90;;;;;;5003159;28;21006;-85
2021/05/27 01:15:54;;;;;;;5.10;4.13;;;10.80;99.90;;;;;;5001384;28;20448;-84
2021/05/27 01:18:23;;;;;;;4.60;4.30;;;10.80;99.90;;;;;;5001493;28;20456;-84
2021/05/27 01:20:51;;;;;;;5.97;4.60;;;10.80;99.90;;;;;;5001712;28;20454;-83
2021/05/27 01:23:18;;;;;;;3.40;3.20;;;10.70;99.90;;;;;;5001450;28;20905;-83
2021/05/27 01:25:47;;;;;;;4.43;4.03;;;10.70;99.90;;;;;;5014572;28;20444;-81
2021/05/27 01:28:14;;;;;;;4.20;3.90;;;10.50;99.90;;;;;;5015443;28;20444;-82
2021/05/27 01:30:40;;;;;;;4.10;3.37;;;10.80;99.90;;;;;;5015105;28;20444;-81
2021/05/27 01:33:09;;;;;;;4.47;4.03;;;10.90;99.90;;;;;;5015831;28;20463;-83
2021/05/27 01:35:35;;;;;;;4.20;3.70;;;10.70;99.90;;;;;;5017011;28;20430;-82
2021/05/27 01:38:11;;;;;;;4.93;4.53;;;10.60;99.90;;;;;;5015791;28;20448;-82
2021/05/27 01:40:38;;;;;;;4.63;4.33;;;10.70;99.90;;;;;;5015880;28;20456;-82
2021/05/27 01:43:04;;;;;;;5.33;3.80;;;10.60;99.90;;;;;;5015933;28;20464;-82
2021/05/27 01:45:31;;;;;;;4.30;4.00;;;10.50;99.90;;;;;;5016787;28;20460;-84
2021/05/27 01:47:57;;;;;;;6.37;4.17;;;10.60;99.90;;;;;;5011215;28;20452;-84
2021/05/27 01:50:23;;;;;;;7.90;6.30;;;10.60;99.90;;;;;;5007151;28;20445;-83
2021/05/27 01:52:50;;;;;;;6.00;5.27;;;10.40;99.90;;;;;;5017386;28;20452;-82
2021/05/27 01:55:17;;;;;;;6.20;5.60;;;10.60;99.90;;;;;;5013914;28;20464;-82
2021/05/27 01:57:44;;;;;;;4.87;4.47;;;10.60;99.90;;;;;;5014740;28;20455;-82
2021/05/27 02:00:11;;;;;;;7.53;5.03;;;10.50;99.90;;;;;;5015055;28;20444;-82
2021/05/27 02:02:37;;;;;;;6.40;5.10;;;;;;;;;;5012321;28;20528;-82
2021/05/27 02:05:05;;;;;;;4.50;4.10;;;10.30;99.90;;;;;;5012346;28;20483;-82
2021/05/27 02:07:31;;;;;;;4.93;4.43;;;10.40;99.90;;;;;;5011219;28;20448;-82
2021/05/27 02:09:57;;;;;;;5.93;4.93;;;10.40;99.90;;;;;;5013205;28;20870;-83
2021/05/27 02:12:23;;;;;;;5.80;5.30;;;10.40;99.90;;;;;;5012215;28;20451;-83
2021/05/27 02:14:50;;;;;;;6.60;6.00;;;10.40;99.90;;;;;;5014372;28;20472;-84
2021/05/27 02:17:16;;;;;;;7.53;6.00;;;10.60;99.90;;;;;;5014607;28;20444;-82
2021/05/27 02:19:42;;;;;;;7.83;6.37;;;10.60;99.90;;;;;;5015131;28;20526;-82
2021/05/27 02:22:08;;;;;;;6.30;5.80;;;10.30;99.90;;;;;;5015033;28;20448;-82
2021/05/27 02:24:34;;;;;;;5.50;5.00;;;10.30;99.90;;;;;;5015491;28;20480;-81
2021/05/27 02:27:01;;;;;;;6.30;5.73;;;;;;;;;;5014238;28;20463;-81
2021/05/27 02:29:27;;;;;;;6.20;5.60;;;10.30;99.90;;;;;;5006993;28;20446;-82
2021/05/27 02:31:54;;;;;;;6.03;5.50;;;10.30;99.90;;;;;;5006129;28;20479;-83
2021/05/27 02:34:20;;;;;;;5.93;5.40;;;10.30;99.90;;;;;;5002775;28;20461;-83
2021/05/27 02:36:46;;;;;;;6.10;5.60;;;10.30;99.90;;;;;;5001440;28;20452;-83
2021/05/27 02:39:13;;;;;;;5.57;5.17;;;10.30;99.90;;;;;;5001128;28;20476;-83
2021/05/27 02:41:39;;;;;;;5.93;5.43;;;10.30;99.90;;;;;;5000725;28;20448;-83
2021/05/27 02:44:06;;;;;;;6.10;5.60;;;10.30;99.90;;;;;;5000557;28;20520;-83
2021/05/27 02:46:32;;;;;;;6.03;5.53;;;10.30;99.90;;;;;;5000684;28;20498;-83
2021/05/27 02:48:59;;;;;;;6.30;5.70;;;10.40;99.90;;;;;;4999863;28;20444;-83
2021/05/27 02:51:25;;;;;;;6.10;5.50;;;10.10;99.90;;;;;;4999782;28;20209;-83
2021/05/27 02:53:51;;;;;;;6.07;5.50;;;10.30;99.90;;;;;;4999552;28;20514;-83
2021/05/27 02:56:17;;;;;;;6.20;5.60;;;10.30;99.90;;;;;;4999375;28;20452;-83
2021/05/27 02:58:44;;;;;;;6.50;5.90;;;10.40;99.90;;;;;;5000155;28;20483;-83
2021/05/27 03:01:10;;;;;;;5.40;4.90;;;10.30;99.90;;;;;;5000141;28;20452;-83
2021/05/27 03:03:36;;;;;;;6.40;5.80;;;10.30;99.90;;;;;;4998880;28;20499;-83
2021/05/27 03:06:04;;;;;;;6.30;5.70;;;10.40;99.90;;;;;;4998064;28;20522;-84
2021/05/27 03:08:31;;;;;;;6.60;5.63;;;;;;;;;;5000508;28;20558;-83
2021/05/27 03:10:57;;;;;;;6.23;5.70;;;10.40;99.90;;;;;;5002680;28;20547;-82
2021/05/27 03:13:24;;;;;;;6.87;6.37;;;10.40;99.90;;;;;;5009960;28;20471;-82
2021/05/27 03:15:50;;;;;;;8.57;6.83;;;10.40;99.90;;;;;;5013853;28;20471;-82
2021/05/27 03:18:17;;;;;;;7.80;6.40;;;10.60;99.90;;;;;;5013798;28;20448;-82
2021/05/27 03:20:43;;;;;;;7.83;7.10;;;10.40;99.90;;;;;;5004245;28;20487;-83
2021/05/27 03:23:11;;;;;;;7.50;6.60;;;10.60;99.90;;;;;;5004757;28;20472;-83
2021/05/27 03:25:37;;;;;;;6.70;6.00;;;10.70;99.90;;;;;;5003630;28;20448;-83
2021/05/27 03:28:04;;;;;;;6.47;5.87;;;10.40;99.90;;;;;;5002632;28;20947;-84
2021/05/27 03:30:30;;;;;;;6.53;5.97;;;10.40;99.90;;;;;;5002882;28;20506;-84
2021/05/27 03:32:56;;;;;;;6.47;5.90;;;10.20;99.90;;;;;;4999894;28;20452;-84
2021/05/27 03:35:22;;;;;;;6.03;5.53;;;10.40;99.90;;;;;;4999947;28;20483;-83
2021/05/27 03:37:49;;;;;;;7.53;5.87;;;10.40;99.90;;;;;;4999827;28;20448;-82
2021/05/27 03:40:17;;;;;;;6.33;5.77;;;10.50;99.90;;;;;;5000525;28;20452;-82
2021/05/27 03:42:45;;;;;;;6.50;5.90;;;10.70;99.90;;;;;;4999835;28;20947;-83
2021/05/27 03:45:13;;;;;;;6.37;5.87;;;10.50;99.90;;;;;;5014798;28;20495;-82
2021/05/27 03:47:39;;;;;;;6.30;5.70;;;10.50;99.90;;;;;;5007140;28;20455;-83
2021/05/27 03:50:07;;;;;;;5.73;5.23;;;10.40;99.90;;;;;;5003341;28;20451;-83
2021/05/27 03:52:33;;;;;;;6.47;5.30;;;10.50;99.90;;;;;;5007652;28;20507;-83
2021/05/27 03:55:00;;;;;;;6.70;6.00;;;10.70;99.90;;;;;;5004597;28;20228;-83
2021/05/27 03:57:27;;;;;;;6.43;5.82;;;10.60;99.90;;;;;;5011074;28;20452;-83
2021/05/27 04:02:42;;;;;;;6.50;5.90;;;10.60;99.90;;;;;;5012998;28;20404;-82
2021/05/27 04:07:53;;;;;;;5.50;5.10;;;10.60;99.90;;;;;;5012051;28;20420;-80
2021/05/27 04:10:20;;;;;;;7.10;6.40;;;10.70;99.90;;;;;;5012940;28;20448;-83
2021/05/27 04:12:47;;;;;;;7.20;6.27;;;10.50;99.90;;;;;;5011799;28;20456;-84
2021/05/27 04:15:21;;;;;;;10.67;6.30;;;10.70;99.90;;;;;;5000521;28;20932;-84
2021/05/27 04:17:48;;;;;;;11.77;6.87;;;10.50;99.90;;;;;;5002585;28;20519;-84
2021/05/27 04:20:15;;;;;;;7.20;6.50;;;10.70;99.90;;;;;;4999308;28;20551;-83
2021/05/27 04:22:43;;;;;;;6.60;5.90;;;10.70;99.90;;;;;;5002123;28;20478;-83
2021/05/27 04:25:11;;;;;;;7.97;6.70;;;10.80;99.90;;;;;;5002612;28;20870;-84
2021/05/27 04:27:37;;;;;;;7.83;6.80;;;10.50;99.90;;;;;;5002717;28;20452;-84
2021/05/27 04:30:13;;;;;;;6.97;6.27;;;10.80;99.90;;;;;;5002307;28;20448;-83
2021/05/27 04:32:54;;;;;;;6.03;5.43;;;10.80;99.90;;;;;;5011163;28;20440;-81
2021/05/27 04:35:21;;;;;;;6.57;5.50;;;10.90;99.90;;;;;;5012457;28;20439;-81
2021/05/27 04:37:47;;;;;;;6.17;5.57;;;10.80;99.90;;;;;;5011008;28;20458;-83
2021/05/27 04:40:14;;;;;;;6.57;5.43;;;10.90;99.90;;;;;;5003902;28;20452;-83
2021/05/27 04:42:41;;;;;;;6.63;6.03;;;11.00;99.90;;;;;;5003788;28;20452;-84
2021/05/27 04:45:09;;;;;;;5.30;4.83;;;11.00;99.90;;;;;;5002295;28;20492;-83
2021/05/27 04:47:35;;;;;;;6.23;5.70;;;11.10;99.90;;;;;;5002779;28;20444;-83
2021/05/27 04:50:01;;;;;;;7.17;6.43;;;11.10;99.90;;;;;;5003520;28;20452;-83
2021/05/27 04:52:27;;;;;;;8.20;6.60;;;11.10;99.90;;;;;;5002710;28;20476;-83
2021/05/27 04:54:53;;;;;;;8.00;6.20;;;11.10;99.90;;;;;;5005159;28;20472;-82
2021/05/27 04:57:19;;;;;;;6.80;6.10;;;;;;;;;;5005766;28;20857;-84
2021/05/27 04:59:45;;;;;;;8.53;6.53;;;11.10;99.90;;;;;;5004721;28;20448;-85
2021/05/27 05:02:12;;;;;;;6.93;6.37;;;11.20;99.90;;;;;;5003760;28;20474;-84
2021/05/27 05:04:39;;;;;;;6.20;5.70;;;;;;;;;;5002693;28;20994;-84
2021/05/27 05:07:05;;;;;;;8.03;5.80;;;11.30;99.90;;;;;;5003155;28;20882;-84
2021/05/27 05:09:31;;;;;;;6.70;6.10;;;11.30;99.90;;;;;;5004131;28;20452;-84
2021/05/27 05:11:57;;;;;;;6.20;5.70;;;11.30;99.90;;;;;;5003383;28;20974;-84
2021/05/27 05:14:23;;;;;;;5.43;5.03;;;11.80;99.90;;;;;;5001921;28;20500;-84
2021/05/27 05:16:50;;;;;;;6.83;6.13;;;;;;;;;;5001938;28;20455;-84
2021/05/27 05:19:17;;;;;;;6.60;6.00;;;11.50;99.90;;;;;;5002549;28;20463;-83
2021/05/27 05:21:43;;;;;;;6.00;5.40;;;11.50;99.90;;;;;;5002147;28;20796;-84
2021/05/27 05:24:10;;;;;;;11.10;6.10;;;11.50;99.90;;;;;;5005140;28;20491;-83
2021/05/27 05:26:36;;;;;;;6.10;5.50;;;11.60;99.90;;;;;;5000854;28;20461;-82
2021/05/27 05:29:03;;;;;;;8.00;5.70;;;11.70;99.90;;;;;;5003980;28;20427;-83
2021/05/27 05:31:29;;;;;;;6.30;5.70;;;11.70;99.90;;;;;;5001763;28;20460;-83
2021/05/27 05:33:55;;;;;;;9.07;6.50;;;11.70;99.90;;;;;;5001437;28;20475;-83
2021/05/27 05:36:23;;;;;;;7.93;5.90;;;11.80;99.90;;;;;;5003241;28;20452;-85
2021/05/27 05:38:49;;;;;;;8.00;6.40;;;11.80;99.90;;;;;;5002555;28;20452;-84
2021/05/27 05:41:16;;;;;;;6.00;5.40;;;11.80;99.90;;;;;;5002352;28;20584;-84
2021/05/27 05:43:42;;;;;;;7.83;6.67;;;11.80;99.90;;;;;;5031933;22;20502;-76
2021/05/27 05:46:09;;;;;;;6.30;5.70;;;11.70;99.90;;;;;;5035168;28;21046;-76
2021/05/27 05:48:35;;;;;;;9.60;6.63;;;11.90;99.90;;;;;;5035434;28;20482;-76
2021/05/27 05:51:02;;;;;;;11.27;6.70;;;11.90;99.90;;;;;;5035418;28;20442;-76
2021/05/27 05:53:28;;;;;;;9.80;7.17;;;11.90;99.90;;;;;;5035282;28;20447;-75
2021/05/27 05:55:55;;;;;;;8.37;5.67;;;12.20;99.90;;;;;;5035219;28;20568;-76
2021/05/27 05:58:21;;;;;;;6.87;6.37;;;12.10;99.90;;;;;;5035170;28;20449;-76
2021/05/27 06:00:48;;;;;;;6.57;5.93;;;12.20;99.90;;;;;;5035271;28;20544;-76
2021/05/27 06:03:15;;;;;;;7.80;6.07;;;12.50;99.90;;;;;;5035203;28;20439;-76
2021/05/27 06:05:41;;;;;;;6.93;5.80;;;12.20;99.90;;;;;;5035064;28;20486;-76
2021/05/27 06:08:07;;;;;;;6.00;5.50;;;12.20;99.90;;;;;;5034960;28;20482;-76
2021/05/27 06:10:34;;;;;;;7.17;5.97;;;12.20;99.90;;;;;;5035127;28;20486;-77
2021/05/27 06:13:00;;;;;;;7.50;5.80;;;12.20;99.90;;;;;;5034851;28;20820;-75
2021/05/27 06:15:27;;;;;;;8.03;5.60;;;12.30;99.90;;;;;;5034809;28;20586;-76
2021/05/27 06:17:54;;;;;;;6.37;5.73;;;12.30;99.90;;;;;;5035251;28;20453;-76
2021/05/27 06:20:21;;;;;;;9.27;8.07;;;12.30;99.90;;;;;;5035176;28;20446;-76
2021/05/27 06:22:48;;;;;;;6.87;6.17;;;12.30;99.90;;;;;;5035148;28;20960;-76
2021/05/27 06:25:15;;;;;;;9.53;6.30;;;12.50;99.90;;;;;;5034694;28;20489;-76
2021/05/27 06:27:43;;;;;;;9.20;6.33;;;12.60;99.90;;;;;;5034790;28;20453;-76
2021/05/27 06:30:10;;;;;;;6.07;4.87;;;12.60;99.90;;;;;;5036285;28;20446;-76
2021/05/27 06:32:37;;;;;;;7.73;5.70;;;12.60;99.90;;;;;;5034943;28;20820;-76
2021/05/27 06:35:04;;;;;;;6.00;5.17;;;12.60;99.90;;;;;;5034806;28;21055;-76
2021/05/27 06:37:30;;;;;;;7.80;5.40;;;12.50;99.90;;;;;;5034781;28;20451;-77
2021/05/27 06:39:57;;;;;;;6.20;5.70;;;12.40;99.90;;;;;;5034609;28;20466;-77
2021/05/27 06:42:23;;;;;;;7.13;6.53;;;12.40;99.90;;;;;;5035242;28;20450;-77
2021/05/27 06:44:50;;;;;;;10.53;4.93;;;12.10;99.90;;;;;;5033857;28;20529;-76
2021/05/27 06:47:16;;;;;;;5.40;5.00;;;12.20;99.90;;;;;;5034500;28;20447;-77
2021/05/27 06:49:42;;;;;;;11.00;8.27;;;12.30;99.90;;;;;;5034514;28;20442;-76
2021/05/27 06:52:08;;;;;;;7.90;6.97;;;12.30;99.90;;;;;;5034164;28;20513;-77
2021/05/27 06:54:35;;;;;;;10.70;6.70;;;12.40;99.90;;;;;;5034082;28;20462;-76
2021/05/27 06:57:02;;;;;;;27.67;7.70;;;12.50;99.90;;;;;;5034245;28;20446;-77
2021/05/27 06:59:28;;;;;;;10.33;5.80;;;12.70;99.90;;;;;;5034210;28;20454;-76
2021/05/27 07:01:55;;;;;;;7.70;5.43;;;12.60;99.90;;;;;;5034485;28;20469;-77
2021/05/27 07:04:21;;;;;;;6.37;5.33;;;12.60;99.90;;;;;;5034462;28;20489;-80
2021/05/27 07:06:47;;;;;;;5.10;4.70;;;12.60;99.90;;;;;;5034186;28;20443;-77
2021/05/27 07:09:14;;;;;;;5.43;5.00;;;12.50;99.90;;;;;;5034374;28;20504;-77
2021/05/27 07:11:40;;;;;;;4.73;4.33;;;12.60;99.90;;;;;;5034763;28;20447;-77
2021/05/27 07:14:06;;;;;;;16.30;6.53;;;12.70;99.90;;;;;;5033952;28;20466;-77
2021/05/27 07:16:33;;;;;;;12.53;5.57;;;12.50;99.90;;;;;;5034018;28;20800;-77
2021/05/27 07:19:00;;;;;;;8.73;5.70;;;12.60;99.90;;;;;;5034034;28;20450;-77
2021/05/27 07:21:26;;;;;;;9.57;4.90;;;12.60;99.90;;;;;;5034677;28;20493;-76
2021/05/27 07:23:52;;;;;;;12.30;5.60;;;12.60;99.90;;;;;;5034581;28;20932;-77
2021/05/27 07:26:18;;;;;;;7.00;5.87;;;12.40;99.90;;;;;;5034332;28;20446;-77
2021/05/27 07:28:44;;;;;;;5.40;4.90;;;12.20;99.90;;;;;;5033781;28;20442;-77
2021/05/27 07:31:11;;;;;;;9.83;6.00;;;12.00;99.90;;;;;;5035751;28;20454;-78
2021/05/27 07:33:37;;;;;;;13.53;6.67;;;11.80;99.90;;;;;;5035781;28;20818;-76
2021/05/27 07:36:05;;;;;;;5.47;5.00;;;11.80;99.90;;;;;;5034729;28;21001;-77
2021/05/27 07:38:32;;;;;;;12.70;5.57;;;11.90;99.90;;;;;;5034819;28;20457;-77
2021/05/27 07:40:58;;;;;;;4.60;4.10;;;12.00;99.90;;;;;;5034845;28;20450;-76
2021/05/27 07:43:24;;;;;;;7.57;4.47;;;11.70;99.90;;;;;;5033634;28;20508;-76
2021/05/27 07:45:50;;;;;;;4.00;3.70;;;12.10;99.90;;;;;;5034145;28;20954;-77
2021/05/27 07:48:16;;;;;;;3.93;3.53;;;12.20;99.90;;;;;;5035177;28;21017;-77
2021/05/27 07:50:43;;;;;;;4.30;3.90;;;12.30;99.90;;;;;;5035066;28;20442;-78
2021/05/27 07:53:13;;;;;;;8.03;5.60;;;12.30;99.90;;;;;;5040585;28;20461;-79
2021/05/27 07:55:39;;;;;;;3.77;3.50;;;12.30;99.90;;;;;;5039137;28;20799;-79
2021/05/27 07:58:05;;;;;;;4.60;4.20;;;12.40;99.90;;;;;;5038072;28;20819;-78
2021/05/27 08:00:31;;;;;;;5.27;4.77;;;12.50;99.90;;;;;;5037635;28;20477;-78
2021/05/27 08:02:57;;;;;;;4.77;4.33;;;12.50;99.90;;;;;;5037947;28;20454;-79
2021/05/27 08:05:23;;;;;;;5.17;4.67;;;12.70;99.90;;;;;;5040227;28;20497;-80
2021/05/27 08:07:50;;;;;;;5.50;4.10;;;12.70;99.90;;;;;;5041081;28;20442;-80
2021/05/27 08:10:18;;;;;;;4.17;3.83;;;12.70;99.90;;;;;;5039770;28;20482;-79
2021/05/27 08:12:45;;;;;;;3.63;3.33;;;12.60;99.90;;;;;;5040030;28;20461;-80
2021/05/27 08:15:11;;;;;;;5.70;5.10;;;12.50;99.90;;;;;;5040383;28;20436;-79
2021/05/27 08:17:38;;;;;;;3.23;3.03;;;12.60;99.90;;;;;;5041110;28;20457;-81
2021/05/27 08:20:07;;;;;;;4.80;4.30;;;12.60;99.90;;;;;;5041226;28;20450;-82
2021/05/27 08:22:34;;;;;;;3.90;3.60;;;12.70;99.90;;;;;;5041508;28;20444;-80
2021/05/27 08:27:30;;;;;;;6.33;4.13;;;12.90;99.90;;;;;;5021234;28;20487;-83
2021/05/27 08:30:00;;;;;;;6.90;4.43;;;13.00;99.90;;;;;;5022788;28;20459;-83
2021/05/27 08:32:26;;;;;;;5.57;4.50;;;;;;;;;;5022237;28;20451;-83
2021/05/27 08:34:53;;;;;;;8.60;4.40;;;13.00;99.90;;;;;;5022237;28;20466;-82
2021/05/27 08:37:19;;;;;;;4.10;3.70;;;13.00;99.90;;;;;;5021284;28;20495;-83
2021/05/27 08:39:47;;;;;;;5.53;3.87;;;13.20;99.90;;;;;;5024532;28;20432;-83
2021/05/27 08:42:15;;;;;;;3.37;3.07;;;13.20;99.90;;;;;;5057780;22;20991;-77
2021/05/27 08:44:45;;;;;;;4.33;2.97;;;12.90;99.90;;;;;;5034031;28;20481;-78
2021/05/27 08:47:11;;;;;;;5.10;2.83;;;13.30;99.90;;;;;;5035944;28;20801;-78
2021/05/27 08:49:38;;;;;;;2.67;2.47;;;13.30;99.90;;;;;;5036210;28;20449;-78
2021/05/27 08:52:05;;;;;;;3.30;3.00;;;13.20;99.90;;;;;;5043237;28;20494;-80
2021/05/27 08:54:32;;;;;;;3.07;2.80;;;13.40;99.90;;;;;;5050361;28;20514;-81
2021/05/27 08:57:02;;;;;;;3.40;3.10;;;13.50;99.90;;;;;;5049755;28;20446;-80
2021/05/27 08:59:28;;;;;;;3.80;3.50;;;13.50;99.90;;;;;;5045412;28;20470;-79
2021/05/27 09:02:06;;;;;;;3.57;3.27;;;13.50;99.90;;;;;;5041188;28;20527;-79
2021/05/27 09:04:33;;;;;;;17.00;11.83;;;13.40;99.90;;;;;;5049154;28;20481;-79
2021/05/27 09:06:59;;;;;;;6.70;5.87;;;13.80;99.90;;;;;;5047676;28;20450;-79
2021/05/27 09:09:46;;;;;;;7.30;4.00;;;13.40;99.90;;;;;;5051128;28;20446;-79
2021/05/27 09:12:24;;;;;;;3.20;2.90;;;13.20;99.90;;;;;;5044075;28;20839;-78
2021/05/27 09:14:50;;;;;;;4.27;3.27;;;13.20;99.90;;;;;;5039762;28;20496;-77
2021/05/27 09:17:17;;;;;;;3.60;2.77;;;13.10;99.90;;;;;;5038507;28;21098;-78
2021/05/27 09:19:43;;;;;;;5.70;3.23;;;13.10;99.90;;;;;;5038685;28;20450;-77
2021/05/27 09:22:20;;;;;;;5.90;2.80;;;13.30;99.90;;;;;;5037644;28;21006;-78
2021/05/27 09:24:47;;;;;;;2.70;2.50;;;13.30;99.90;;;;;;5037609;28;20466;-78
2021/05/27 09:27:13;;;;;;;2.03;1.83;;;13.20;99.90;;;;;;5037021;28;20887;-78
2021/05/27 09:29:46;;;;;;;2.10;2.00;;;13.40;99.90;;;;;;5037080;28;20867;-78
2021/05/27 09:32:14;;;;;;;4.23;2.00;;;13.80;99.90;;;;;;5037106;28;20831;-79
2021/05/27 09:34:46;;;;;;;1.73;1.63;;;13.60;99.90;;;;;;5037371;28;20454;-78
2021/05/27 09:37:23;;;;;;;2.27;2.07;;;13.50;99.90;;;;;;5037608;28;20465;-78
2021/05/27 09:39:51;;;;;;;4.17;2.30;;;13.90;99.90;;;;;;5037266;28;20837;-78
2021/05/27 09:42:18;;;;;;;2.10;1.30;;;13.60;99.90;;;;;;5036128;28;20475;-78
2021/05/27 09:44:44;;;;;;;1.83;1.30;;;13.70;99.90;;;;;;5036520;28;20489;-79
2021/05/27 09:47:10;;;;;;;3.47;2.40;;;13.60;99.90;;;;;;5036854;28;20920;-78
2021/05/27 09:49:55;;;;;;;3.20;1.60;;;13.40;99.90;;;;;;5036389;28;20447;-78
2021/05/27 09:52:24;;;;;;;18.27;2.30;;;13.70;99.90;;;;;;5036719;28;20474;-78
2021/05/27 09:54:52;;;;;;;2.90;1.20;;;13.70;99.90;;;;;;5038094;28;20864;-77
2021/05/27 09:57:23;;;;;;;1.43;1.33;;;13.80;99.90;;;;;;5037477;28;20442;-79
2021/05/27 09:59:49;;;;;;;3.20;1.67;;;13.90;99.90;;;;;;5038494;28;20454;-78
2021/05/27 10:02:19;;;;;;;3.03;1.80;;;14.10;99.90;;;;;;5042401;28;20477;-80
2021/05/27 10:05:08;;;;;;;2.40;1.90;;;14.20;99.90;;;;;;5045897;28;20524;-80
2021/05/27 10:07:37;;;;;;;3.50;1.70;;;14.30;99.90;;;;;;5039700;28;20821;-80
2021/05/27 10:10:05;;;;;;;2.17;2.00;;;14.40;99.90;;;;;;5038931;28;20460;-80
2021/05/27 10:12:40;;;;;;;2.40;2.20;;;14.30;99.90;;;;;;5040282;28;20470;-80
2021/05/27 10:15:08;;;;;;;2.77;1.87;;;14.70;99.90;;;;;;5039938;28;20434;-80
2021/05/27 10:17:37;;;;;;;1.60;1.50;;;14.90;99.90;;;;;;5039768;28;20811;-79
2021/05/27 10:20:07;;;;;;;2.90;2.50;;;15.00;99.90;;;;;;5039437;28;20951;-80
2021/05/27 10:22:34;;;;;;;2.23;1.90;;;14.80;99.90;;;;;;5041931;28;20525;-80
2021/05/27 10:25:02;;;;;;;2.30;2.20;;;15.10;99.90;;;;;;5039960;28;20604;-80
2021/05/27 10:27:28;;;;;;;3.87;2.10;;;15.20;99.90;;;;;;5038861;28;20986;-80
2021/05/27 10:29:54;;;;;;;2.00;1.90;;;15.30;99.90;;;;;;5039853;28;20867;-80
2021/05/27 10:32:22;;;;;;;2.67;2.13;;;15.30;99.90;;;;;;5039855;28;20466;-80
2021/05/27 10:34:50;;;;;;;1.80;1.70;;;15.50;99.90;;;;;;5038727;28;20453;-77
2021/05/27 10:37:48;;;;;;;2.97;1.97;;;15.20;99.90;;;;;;5034712;28;20820;-78
2021/05/27 10:40:42;;;;;;;2.67;2.03;;;15.30;99.90;;;;;;5034965;28;20765;-77
2021/05/27 10:43:11;;;;;;;3.27;2.13;;;15.30;99.90;;;;;;4999178;28;21081;-77
2021/05/27 10:46:00;;;;;;;1.90;1.80;;;15.40;99.90;;;;;;5034834;28;20489;-77
2021/05/27 10:48:28;;;;;;;3.73;2.50;;;15.40;99.90;;;;;;5035120;28;20446;-78
2021/05/27 10:51:06;;;;;;;2.90;1.60;;;15.50;99.90;;;;;;5034594;28;20454;-78
2021/05/27 10:53:50;;;;;;;5.80;1.37;;;15.20;99.90;;;;;;5035132;28;20568;-79
2021/05/27 10:56:19;;;;;;;1.70;1.60;;;15.00;99.90;;;;;;5037823;28;20497;-80
2021/05/27 10:59:03;;;;;;;1.90;1.80;;;15.00;99.90;;;;;;5044216;28;20457;-80
2021/05/27 11:02:01;;;;;;;2.53;1.63;;;14.50;99.90;;;;;;5042038;28;20457;-80
2021/05/27 11:04:34;;;;;;;1.80;1.70;;;15.00;99.90;;;;;;5041210;28;20481;-81
2021/05/27 11:07:23;;;;;;;1.60;1.50;;;15.00;99.90;;;;;;5040543;28;20438;-80
2021/05/27 11:09:57;;;;;;;2.77;2.57;;;14.90;99.90;;;;;;5041299;28;20450;-81
2021/05/27 11:12:32;;;;;;;1.80;1.70;;;14.80;99.90;;;;;;5044961;28;20550;-79
2021/05/27 11:15:11;;;;;;;1.77;1.67;;;14.10;99.90;;;;;;5044736;28;20516;-79
2021/05/27 11:17:37;;;;;;;3.07;2.87;;;14.40;99.90;;;;;;5046602;28;20434;-79
2021/05/27 11:20:07;;;;;;;2.50;1.80;;;14.60;99.90;;;;;;5040849;28;20500;-80
2021/05/27 11:22:48;;;;;;;2.33;2.13;;;14.60;99.90;;;;;;5039971;28;20490;-80
2021/05/27 11:25:34;;;;;;;4.03;2.13;;;14.80;99.90;;;;;;5046864;28;20462;-79
2021/05/27 11:28:26;;;;;;;3.80;2.33;;;14.80;99.90;;;;;;5052199;28;20442;-79
2021/05/27 11:30:54;;;;;;;1.97;1.20;;;14.70;99.90;;;;;;5052479;28;20488;-80
2021/05/27 11:33:40;;;;;;;2.40;1.40;;;14.40;99.90;;;;;;5051087;28;20466;-79
2021/05/27 11:36:25;;;;;;;1.47;1.37;;;14.50;99.90;;;;;;5046289;28;20765;-79
2021/05/27 11:38:53;;;;;;;2.03;1.40;;;14.40;99.90;;;;;;5049678;28;20465;-79
2021/05/27 11:41:21;;;;;;;1.60;1.10;;;14.50;99.90;;;;;;5045263;28;20458;-80
2021/05/27 11:43:49;;;;;;;1.60;1.50;;;15.20;99.90;;;;;;5042059;28;20478;-79
2021/05/27 11:46:17;;;;;;;1.43;1.27;;;15.00;99.90;;;;;;5039367;28;20561;-80
2021/05/27 11:48:56;;;;;;;4.80;2.47;;;15.00;99.90;;;;;;5039066;28;20461;-80
2021/05/27 11:51:23;;;;;;;1.47;1.37;;;15.20;99.90;;;;;;5039313;28;20530;-80
2021/05/27 11:53:52;;;;;;;2.23;1.67;;;15.10;99.90;;;;;;5042560;28;20454;-79
2021/05/27 11:56:36;;;;;;;1.30;1.20;;;15.10;99.90;;;;;;5041075;28;20442;-79
2021/05/27 11:59:04;;;;;;;1.30;1.20;;;15.00;99.90;;;;;;5041625;28;20435;-80
2021/05/27 12:01:30;;;;;;;1.60;1.07;;;14.30;99.90;;;;;;5039666;28;20530;-78
2021/05/27 12:04:02;;;;;;;1.67;1.00;;;14.90;99.90;;;;;;5036086;28;20442;-79
2021/05/27 12:06:29;;;;;;;1.40;1.30;;;14.20;99.90;;;;;;5036673;28;20783;-80
2021/05/27 12:08:55;;;;;;;4.80;1.57;;;12.40;99.90;;;;;;5037104;28;20446;-79
2021/05/27 12:11:32;;;;;;;1.63;1.50;;;12.30;99.90;;;;;;5036196;28;20466;-80
2021/05/27 12:13:59;;;;;;;1.40;1.30;;;12.20;99.90;;;;;;5037664;28;20443;-80
2021/05/27 12:16:30;;;;;;;3.97;1.97;;;12.00;99.90;;;;;;5036844;28;20814;-79
2021/05/27 12:19:00;;;;;;;2.30;2.20;;;12.00;99.90;;;;;;5035104;28;20904;-79
2021/05/27 12:21:26;;;;;;;1.73;1.63;;;12.30;99.90;;;;;;5037180;28;20443;-81
2021/05/27 12:23:53;;;;;;;2.00;1.80;;;12.10;99.90;;;;;;5038906;28;20454;-82
2021/05/27 12:26:19;;;;;;;2.93;2.60;;;13.10;99.90;;;;;;5047176;28;20486;-80
2021/05/27 12:28:46;;;;;;;1.90;1.70;;;12.50;99.90;;;;;;5044897;28;20514;-80
2021/05/27 12:31:12;;;;;;;1.73;1.63;;;12.70;99.90;;;;;;5038675;28;20446;-81
2021/05/27 12:33:39;;;;;;;1.80;1.70;;;13.00;99.90;;;;;;5037942;28;20830;-82
2021/05/27 12:36:07;;;;;;;1.70;1.60;;;13.10;99.90;;;;;;5037656;28;20999;-81
2021/05/27 12:38:33;;;;;;;1.90;1.80;;;13.30;99.90;;;;;;5034045;28;21011;-78
2021/05/27 12:41:04;;;;;;;2.30;2.10;;;13.50;99.90;;;;;;5035920;28;20446;-80
2021/05/27 12:43:34;;;;;;;1.50;1.40;;;13.70;99.90;;;;;;5039565;28;20937;-80
2021/05/27 12:46:03;;;;;;;1.70;1.60;;;13.80;99.90;;;;;;5042466;28;20478;-81
2021/05/27 12:48:31;;;;;;;4.00;1.70;;;14.00;99.90;;;;;;5041643;28;20442;-79
2021/05/27 12:51:04;;;;;;;2.00;1.80;;;14.10;99.90;;;;;;5037644;28;20450;-78
2021/05/27 12:53:32;;;;;;;1.83;1.73;;;14.20;99.90;;;;;;5037054;28;20502;-79
2021/05/27 12:56:10;;;;;;;3.53;1.70;;;14.40;99.90;;;;;;5036752;28;20457;-76
2021/05/27 12:58:37;;;;;;;1.50;1.40;;;14.60;99.90;;;;;;5036610;28;20517;-76
2021/05/27 13:01:06;;;;;;;4.63;3.30;;;14.60;99.90;;;;;;5036333;28;20450;-75